sensor_id;sensor_type;location;lat;lon;timestamp;P1;durP1;ratioP1;P2;durP2;ratioP2
18302;SDS011;9277;37.980;23.748;2022-11-15T00:01:14;13.95;;;7.15;;
18302;SDS011;9277;37.980;23.748;2022-11-15T00:03:42;12.75;;;6.43;;
18302;SDS011;9277;37.980;23.748;2022-11-15T00:06:08;12.73;;;6.88;;
18302;SDS011;9277;37.980;23.748;2022-11-15T00:08:35;12.02;;;6.32;;
18302;SDS011;9277;37.980;23.748;2022-11-15T00:11:04;15.75;;;6.53;;
18302;SDS011;9277;37.980;23.748;2022-11-15T00:13:30;10.70;;;6.20;;
18302;SDS011;9277;37.980;23.748;2022-11-15T00:15:57;10.68;;;6.10;;
18302;SDS011;9277;37.980;23.748;2022-11-15T00:18:25;10.95;;;6.05;;
18302;SDS011;9277;37.980;23.748;2022-11-15T00:20:52;10.38;;;6.22;;
18302;SDS011;9277;37.980;23.748;2022-11-15T00:23:18;10.07;;;6.07;;
18302;SDS011;9277;37.980;23.748;2022-11-15T00:25:45;14.82;;;7.05;;
18302;SDS011;9277;37.980;23.748;2022-11-15T00:28:14;12.70;;;6.07;;
18302;SDS011;9277;37.980;23.748;2022-11-15T00:30:40;15.20;;;6.07;;
18302;SDS011;9277;37.980;23.748;2022-11-15T00:33:08;13.88;;;6.60;;
18302;SDS011;9277;37.980;23.748;2022-11-15T00:35:35;11.50;;;6.15;;
18302;SDS011;9277;37.980;23.748;2022-11-15T00:38:02;12.73;;;6.40;;
18302;SDS011;9277;37.980;23.748;2022-11-15T00:40:29;11.15;;;5.75;;
18302;SDS011;9277;37.980;23.748;2022-11-15T00:42:56;13.88;;;5.90;;
18302;SDS011;9277;37.980;23.748;2022-11-15T00:45:24;10.55;;;6.15;;
18302;SDS011;9277;37.980;23.748;2022-11-15T00:47:51;12.27;;;6.45;;
18302;SDS011;9277;37.980;23.748;2022-11-15T00:50:18;12.98;;;6.90;;
18302;SDS011;9277;37.980;23.748;2022-11-15T00:52:45;16.63;;;6.60;;
18302;SDS011;9277;37.980;23.748;2022-11-15T00:55:13;11.48;;;6.35;;
18302;SDS011;9277;37.980;23.748;2022-11-15T00:57:41;16.05;;;6.40;;
18302;SDS011;9277;37.980;23.748;2022-11-15T01:00:08;12.43;;;6.38;;
18302;SDS011;9277;37.980;23.748;2022-11-15T01:02:36;14.20;;;7.60;;
18302;SDS011;9277;37.980;23.748;2022-11-15T01:05:03;13.13;;;6.68;;
18302;SDS011;9277;37.980;23.748;2022-11-15T01:07:30;12.63;;;6.22;;
18302;SDS011;9277;37.980;23.748;2022-11-15T01:09:57;10.95;;;6.32;;
18302;SDS011;9277;37.980;23.748;2022-11-15T01:12:24;9.90;;;6.03;;
18302;SDS011;9277;37.980;23.748;2022-11-15T01:14:51;11.05;;;6.38;;
18302;SDS011;9277;37.980;23.748;2022-11-15T01:17:18;12.50;;;6.88;;
18302;SDS011;9277;37.980;23.748;2022-11-15T01:19:47;10.48;;;6.15;;
18302;SDS011;9277;37.980;23.748;2022-11-15T01:22:14;10.90;;;5.78;;
18302;SDS011;9277;37.980;23.748;2022-11-15T01:24:41;11.35;;;6.15;;
18302;SDS011;9277;37.980;23.748;2022-11-15T01:27:07;12.90;;;5.55;;
18302;SDS011;9277;37.980;23.748;2022-11-15T01:29:34;9.18;;;5.65;;
18302;SDS011;9277;37.980;23.748;2022-11-15T01:32:01;10.88;;;5.80;;
18302;SDS011;9277;37.980;23.748;2022-11-15T01:34:28;10.88;;;5.90;;
18302;SDS011;9277;37.980;23.748;2022-11-15T01:36:56;10.82;;;6.13;;
18302;SDS011;9277;37.980;23.748;2022-11-15T01:39:23;11.30;;;6.30;;
18302;SDS011;9277;37.980;23.748;2022-11-15T01:41:50;12.10;;;5.90;;
18302;SDS011;9277;37.980;23.748;2022-11-15T01:47:12;10.27;;;5.85;;
18302;SDS011;9277;37.980;23.748;2022-11-15T01:49:40;9.00;;;5.43;;
18302;SDS011;9277;37.980;23.748;2022-11-15T01:52:10;10.52;;;5.80;;
18302;SDS011;9277;37.980;23.748;2022-11-15T01:54:38;10.82;;;6.03;;
18302;SDS011;9277;37.980;23.748;2022-11-15T01:57:06;10.88;;;5.63;;
18302;SDS011;9277;37.980;23.748;2022-11-15T01:59:34;12.35;;;6.35;;
18302;SDS011;9277;37.980;23.748;2022-11-15T02:02:01;11.55;;;5.20;;
18302;SDS011;9277;37.980;23.748;2022-11-15T02:04:28;11.32;;;5.97;;
18302;SDS011;9277;37.980;23.748;2022-11-15T02:06:57;8.10;;;5.55;;
18302;SDS011;9277;37.980;23.748;2022-11-15T02:09:25;12.32;;;6.18;;
18302;SDS011;9277;37.980;23.748;2022-11-15T02:11:52;9.32;;;5.70;;
18302;SDS011;9277;37.980;23.748;2022-11-15T02:14:20;13.35;;;6.25;;
18302;SDS011;9277;37.980;23.748;2022-11-15T02:16:48;9.45;;;5.38;;
18302;SDS011;9277;37.980;23.748;2022-11-15T02:19:28;11.27;;;5.82;;
18302;SDS011;9277;37.980;23.748;2022-11-15T02:22:01;12.48;;;5.00;;
18302;SDS011;9277;37.980;23.748;2022-11-15T02:24:40;9.65;;;5.82;;
18302;SDS011;9277;37.980;23.748;2022-11-15T02:27:21;10.93;;;6.88;;
18302;SDS011;9277;37.980;23.748;2022-11-15T02:29:58;16.85;;;6.30;;
18302;SDS011;9277;37.980;23.748;2022-11-15T02:32:30;9.85;;;5.70;;
18302;SDS011;9277;37.980;23.748;2022-11-15T02:35:01;11.00;;;6.35;;
18302;SDS011;9277;37.980;23.748;2022-11-15T02:37:32;11.75;;;6.55;;
18302;SDS011;9277;37.980;23.748;2022-11-15T02:40:02;11.55;;;5.53;;
18302;SDS011;9277;37.980;23.748;2022-11-15T02:42:33;10.60;;;5.50;;
18302;SDS011;9277;37.980;23.748;2022-11-15T02:45:19;8.68;;;5.60;;
18302;SDS011;9277;37.980;23.748;2022-11-15T02:47:49;15.77;;;5.72;;
18302;SDS011;9277;37.980;23.748;2022-11-15T02:50:19;9.90;;;5.75;;
18302;SDS011;9277;37.980;23.748;2022-11-15T02:52:47;11.75;;;5.45;;
18302;SDS011;9277;37.980;23.748;2022-11-15T02:55:28;9.38;;;5.20;;
18302;SDS011;9277;37.980;23.748;2022-11-15T02:57:58;11.70;;;5.13;;
18302;SDS011;9277;37.980;23.748;2022-11-15T03:00:30;9.93;;;5.43;;
18302;SDS011;9277;37.980;23.748;2022-11-15T03:03:08;9.02;;;4.72;;
18302;SDS011;9277;37.980;23.748;2022-11-15T03:05:41;8.40;;;4.70;;
18302;SDS011;9277;37.980;23.748;2022-11-15T03:08:12;7.68;;;4.72;;
18302;SDS011;9277;37.980;23.748;2022-11-15T03:10:46;9.77;;;4.85;;
18302;SDS011;9277;37.980;23.748;2022-11-15T03:13:18;8.35;;;4.88;;
18302;SDS011;9277;37.980;23.748;2022-11-15T03:15:47;11.13;;;4.68;;
18302;SDS011;9277;37.980;23.748;2022-11-15T03:18:19;11.35;;;4.63;;
18302;SDS011;9277;37.980;23.748;2022-11-15T03:20:47;8.52;;;4.88;;
18302;SDS011;9277;37.980;23.748;2022-11-15T03:23:15;9.98;;;4.82;;
18302;SDS011;9277;37.980;23.748;2022-11-15T03:25:45;11.73;;;5.10;;
18302;SDS011;9277;37.980;23.748;2022-11-15T03:28:14;10.82;;;5.20;;
18302;SDS011;9277;37.980;23.748;2022-11-15T03:30:42;8.02;;;4.95;;
18302;SDS011;9277;37.980;23.748;2022-11-15T03:33:09;11.40;;;5.15;;
18302;SDS011;9277;37.980;23.748;2022-11-15T03:35:39;8.10;;;4.93;;
18302;SDS011;9277;37.980;23.748;2022-11-15T03:38:08;10.82;;;4.80;;
18302;SDS011;9277;37.980;23.748;2022-11-15T03:40:36;8.82;;;5.50;;
18302;SDS011;9277;37.980;23.748;2022-11-15T03:43:07;10.75;;;5.45;;
18302;SDS011;9277;37.980;23.748;2022-11-15T03:45:37;13.15;;;4.85;;
18302;SDS011;9277;37.980;23.748;2022-11-15T03:48:07;9.50;;;4.65;;
18302;SDS011;9277;37.980;23.748;2022-11-15T03:50:38;9.63;;;4.72;;
18302;SDS011;9277;37.980;23.748;2022-11-15T03:53:06;9.25;;;5.22;;
18302;SDS011;9277;37.980;23.748;2022-11-15T03:55:33;9.85;;;5.03;;
18302;SDS011;9277;37.980;23.748;2022-11-15T03:58:00;9.85;;;4.85;;
18302;SDS011;9277;37.980;23.748;2022-11-15T04:00:27;6.68;;;4.85;;
18302;SDS011;9277;37.980;23.748;2022-11-15T04:02:55;11.00;;;5.38;;
18302;SDS011;9277;37.980;23.748;2022-11-15T04:05:21;10.00;;;5.55;;
18302;SDS011;9277;37.980;23.748;2022-11-15T04:07:50;10.40;;;5.45;;
18302;SDS011;9277;37.980;23.748;2022-11-15T04:10:17;10.43;;;5.20;;
18302;SDS011;9277;37.980;23.748;2022-11-15T04:12:44;8.38;;;4.60;;
18302;SDS011;9277;37.980;23.748;2022-11-15T04:15:13;12.38;;;5.55;;
18302;SDS011;9277;37.980;23.748;2022-11-15T04:17:41;9.52;;;5.47;;
18302;SDS011;9277;37.980;23.748;2022-11-15T04:20:13;11.50;;;5.70;;
18302;SDS011;9277;37.980;23.748;2022-11-15T04:22:59;11.68;;;5.53;;
18302;SDS011;9277;37.980;23.748;2022-11-15T04:25:44;10.13;;;5.43;;
18302;SDS011;9277;37.980;23.748;2022-11-15T04:28:11;8.57;;;5.25;;
18302;SDS011;9277;37.980;23.748;2022-11-15T04:30:38;11.15;;;5.25;;
18302;SDS011;9277;37.980;23.748;2022-11-15T04:33:05;11.65;;;5.75;;
18302;SDS011;9277;37.980;23.748;2022-11-15T04:35:32;9.07;;;5.03;;
18302;SDS011;9277;37.980;23.748;2022-11-15T04:38:00;14.25;;;5.70;;
18302;SDS011;9277;37.980;23.748;2022-11-15T04:40:26;12.50;;;5.32;;
18302;SDS011;9277;37.980;23.748;2022-11-15T04:42:53;12.05;;;5.57;;
18302;SDS011;9277;37.980;23.748;2022-11-15T04:45:20;11.27;;;5.68;;
18302;SDS011;9277;37.980;23.748;2022-11-15T04:47:46;13.05;;;6.05;;
18302;SDS011;9277;37.980;23.748;2022-11-15T04:50:13;9.30;;;5.20;;
18302;SDS011;9277;37.980;23.748;2022-11-15T04:52:41;16.67;;;6.05;;
18302;SDS011;9277;37.980;23.748;2022-11-15T04:55:10;9.43;;;5.43;;
18302;SDS011;9277;37.980;23.748;2022-11-15T04:57:37;10.23;;;5.13;;
18302;SDS011;9277;37.980;23.748;2022-11-15T05:00:04;11.38;;;4.93;;
18302;SDS011;9277;37.980;23.748;2022-11-15T05:02:31;9.75;;;5.63;;
18302;SDS011;9277;37.980;23.748;2022-11-15T05:05:12;9.93;;;5.53;;
18302;SDS011;9277;37.980;23.748;2022-11-15T05:07:39;9.00;;;5.20;;
18302;SDS011;9277;37.980;23.748;2022-11-15T05:10:06;11.27;;;5.60;;
18302;SDS011;9277;37.980;23.748;2022-11-15T05:12:34;9.90;;;5.18;;
18302;SDS011;9277;37.980;23.748;2022-11-15T05:15:01;9.68;;;4.70;;
18302;SDS011;9277;37.980;23.748;2022-11-15T05:17:28;9.15;;;5.10;;
18302;SDS011;9277;37.980;23.748;2022-11-15T05:19:55;13.38;;;5.43;;
18302;SDS011;9277;37.980;23.748;2022-11-15T05:22:22;10.02;;;5.05;;
18302;SDS011;9277;37.980;23.748;2022-11-15T05:24:48;12.60;;;5.20;;
18302;SDS011;9277;37.980;23.748;2022-11-15T05:27:15;11.75;;;5.95;;
18302;SDS011;9277;37.980;23.748;2022-11-15T05:29:44;8.15;;;4.82;;
18302;SDS011;9277;37.980;23.748;2022-11-15T05:32:11;12.15;;;5.32;;
18302;SDS011;9277;37.980;23.748;2022-11-15T05:34:38;13.98;;;5.70;;
18302;SDS011;9277;37.980;23.748;2022-11-15T05:37:05;9.43;;;5.07;;
18302;SDS011;9277;37.980;23.748;2022-11-15T05:39:32;10.75;;;5.63;;
18302;SDS011;9277;37.980;23.748;2022-11-15T05:41:59;10.10;;;5.28;;
18302;SDS011;9277;37.980;23.748;2022-11-15T05:44:27;10.00;;;4.55;;
18302;SDS011;9277;37.980;23.748;2022-11-15T05:46:55;8.88;;;5.00;;
18302;SDS011;9277;37.980;23.748;2022-11-15T05:49:24;11.23;;;5.45;;
18302;SDS011;9277;37.980;23.748;2022-11-15T05:51:51;12.18;;;6.50;;
18302;SDS011;9277;37.980;23.748;2022-11-15T05:54:19;12.68;;;5.05;;
18302;SDS011;9277;37.980;23.748;2022-11-15T05:56:48;8.57;;;5.30;;
18302;SDS011;9277;37.980;23.748;2022-11-15T05:59:15;11.55;;;5.63;;
18302;SDS011;9277;37.980;23.748;2022-11-15T06:01:42;11.43;;;5.30;;
18302;SDS011;9277;37.980;23.748;2022-11-15T06:04:11;10.38;;;5.82;;
18302;SDS011;9277;37.980;23.748;2022-11-15T06:06:37;10.20;;;5.68;;
18302;SDS011;9277;37.980;23.748;2022-11-15T06:09:04;11.13;;;5.70;;
18302;SDS011;9277;37.980;23.748;2022-11-15T06:11:31;10.57;;;5.82;;
18302;SDS011;9277;37.980;23.748;2022-11-15T06:13:58;9.23;;;5.30;;
18302;SDS011;9277;37.980;23.748;2022-11-15T06:16:25;9.98;;;5.28;;
18302;SDS011;9277;37.980;23.748;2022-11-15T06:18:51;11.05;;;5.25;;
18302;SDS011;9277;37.980;23.748;2022-11-15T06:21:20;11.15;;;5.03;;
18302;SDS011;9277;37.980;23.748;2022-11-15T06:23:47;10.52;;;5.35;;
18302;SDS011;9277;37.980;23.748;2022-11-15T06:26:14;14.02;;;5.20;;
18302;SDS011;9277;37.980;23.748;2022-11-15T06:28:41;12.70;;;4.43;;
18302;SDS011;9277;37.980;23.748;2022-11-15T06:31:09;8.65;;;4.88;;
18302;SDS011;9277;37.980;23.748;2022-11-15T06:33:37;10.55;;;4.75;;
18302;SDS011;9277;37.980;23.748;2022-11-15T06:36:04;10.73;;;5.07;;
18302;SDS011;9277;37.980;23.748;2022-11-15T06:38:32;9.82;;;4.63;;
18302;SDS011;9277;37.980;23.748;2022-11-15T06:41:02;8.15;;;5.07;;
18302;SDS011;9277;37.980;23.748;2022-11-15T06:43:29;9.95;;;5.35;;
18302;SDS011;9277;37.980;23.748;2022-11-15T06:45:57;9.52;;;5.40;;
18302;SDS011;9277;37.980;23.748;2022-11-15T06:48:24;9.52;;;4.72;;
18302;SDS011;9277;37.980;23.748;2022-11-15T06:50:51;10.52;;;5.47;;
18302;SDS011;9277;37.980;23.748;2022-11-15T06:53:18;8.88;;;5.03;;
18302;SDS011;9277;37.980;23.748;2022-11-15T06:55:46;6.57;;;4.43;;
18302;SDS011;9277;37.980;23.748;2022-11-15T06:58:13;9.85;;;5.05;;
18302;SDS011;9277;37.980;23.748;2022-11-15T07:00:40;9.90;;;4.97;;
18302;SDS011;9277;37.980;23.748;2022-11-15T07:03:07;8.98;;;4.43;;
18302;SDS011;9277;37.980;23.748;2022-11-15T07:05:34;13.45;;;5.00;;
18302;SDS011;9277;37.980;23.748;2022-11-15T07:08:01;8.45;;;4.50;;
18302;SDS011;9277;37.980;23.748;2022-11-15T07:10:28;7.13;;;4.47;;
18302;SDS011;9277;37.980;23.748;2022-11-15T07:12:56;6.00;;;4.28;;
18302;SDS011;9277;37.980;23.748;2022-11-15T07:15:23;9.13;;;4.68;;
18302;SDS011;9277;37.980;23.748;2022-11-15T07:17:51;7.28;;;4.30;;
18302;SDS011;9277;37.980;23.748;2022-11-15T07:20:18;8.95;;;5.10;;
18302;SDS011;9277;37.980;23.748;2022-11-15T07:22:45;8.38;;;4.78;;
18302;SDS011;9277;37.980;23.748;2022-11-15T07:25:12;7.25;;;4.47;;
18302;SDS011;9277;37.980;23.748;2022-11-15T07:27:38;6.43;;;4.07;;
18302;SDS011;9277;37.980;23.748;2022-11-15T07:30:07;8.63;;;4.85;;
18302;SDS011;9277;37.980;23.748;2022-11-15T07:32:34;8.13;;;4.70;;
18302;SDS011;9277;37.980;23.748;2022-11-15T07:35:01;9.45;;;4.25;;
18302;SDS011;9277;37.980;23.748;2022-11-15T07:37:29;7.60;;;4.53;;
18302;SDS011;9277;37.980;23.748;2022-11-15T07:39:56;10.60;;;4.82;;
18302;SDS011;9277;37.980;23.748;2022-11-15T07:42:23;7.93;;;4.45;;
18302;SDS011;9277;37.980;23.748;2022-11-15T07:45:08;7.88;;;5.00;;
18302;SDS011;9277;37.980;23.748;2022-11-15T07:47:35;8.70;;;4.55;;
18302;SDS011;9277;37.980;23.748;2022-11-15T07:50:02;12.93;;;5.47;;
18302;SDS011;9277;37.980;23.748;2022-11-15T07:52:29;9.07;;;4.95;;
18302;SDS011;9277;37.980;23.748;2022-11-15T07:54:55;8.35;;;4.53;;
18302;SDS011;9277;37.980;23.748;2022-11-15T07:57:23;8.82;;;4.78;;
18302;SDS011;9277;37.980;23.748;2022-11-15T07:59:49;12.70;;;4.80;;
18302;SDS011;9277;37.980;23.748;2022-11-15T08:02:18;7.57;;;4.95;;
18302;SDS011;9277;37.980;23.748;2022-11-15T08:04:45;11.52;;;5.28;;
18302;SDS011;9277;37.980;23.748;2022-11-15T08:07:12;11.27;;;5.47;;
18302;SDS011;9277;37.980;23.748;2022-11-15T08:09:38;10.68;;;4.65;;
18302;SDS011;9277;37.980;23.748;2022-11-15T08:12:06;7.57;;;4.70;;
18302;SDS011;9277;37.980;23.748;2022-11-15T08:14:33;8.23;;;4.75;;
18302;SDS011;9277;37.980;23.748;2022-11-15T08:17:00;12.35;;;6.18;;
18302;SDS011;9277;37.980;23.748;2022-11-15T08:19:28;10.57;;;5.72;;
18302;SDS011;9277;37.980;23.748;2022-11-15T08:21:55;8.88;;;5.38;;
18302;SDS011;9277;37.980;23.748;2022-11-15T08:24:22;9.05;;;5.30;;
18302;SDS011;9277;37.980;23.748;2022-11-15T08:26:48;10.65;;;5.10;;
18302;SDS011;9277;37.980;23.748;2022-11-15T08:29:15;10.05;;;5.28;;
18302;SDS011;9277;37.980;23.748;2022-11-15T08:31:42;14.30;;;5.53;;
18302;SDS011;9277;37.980;23.748;2022-11-15T08:34:09;10.35;;;5.05;;
18302;SDS011;9277;37.980;23.748;2022-11-15T08:36:37;12.20;;;5.25;;
18302;SDS011;9277;37.980;23.748;2022-11-15T08:39:04;11.75;;;5.32;;
18302;SDS011;9277;37.980;23.748;2022-11-15T08:41:32;11.98;;;5.55;;
18302;SDS011;9277;37.980;23.748;2022-11-15T08:44:00;11.60;;;5.38;;
18302;SDS011;9277;37.980;23.748;2022-11-15T08:46:27;10.18;;;5.40;;
18302;SDS011;9277;37.980;23.748;2022-11-15T08:48:54;9.15;;;4.38;;
18302;SDS011;9277;37.980;23.748;2022-11-15T08:51:21;12.90;;;4.60;;
18302;SDS011;9277;37.980;23.748;2022-11-15T08:53:49;7.28;;;4.22;;
18302;SDS011;9277;37.980;23.748;2022-11-15T08:56:16;9.57;;;4.65;;
18302;SDS011;9277;37.980;23.748;2022-11-15T08:58:43;11.88;;;5.32;;
18302;SDS011;9277;37.980;23.748;2022-11-15T09:01:14;6.95;;;4.82;;
18302;SDS011;9277;37.980;23.748;2022-11-15T09:03:41;8.25;;;4.78;;
18302;SDS011;9277;37.980;23.748;2022-11-15T09:06:08;10.57;;;4.38;;
18302;SDS011;9277;37.980;23.748;2022-11-15T09:08:35;6.88;;;4.07;;
18302;SDS011;9277;37.980;23.748;2022-11-15T09:11:04;10.55;;;4.55;;
18302;SDS011;9277;37.980;23.748;2022-11-15T09:13:31;8.20;;;4.90;;
18302;SDS011;9277;37.980;23.748;2022-11-15T09:15:58;8.23;;;4.88;;
18302;SDS011;9277;37.980;23.748;2022-11-15T09:18:25;9.07;;;4.85;;
18302;SDS011;9277;37.980;23.748;2022-11-15T09:20:54;7.97;;;4.95;;
18302;SDS011;9277;37.980;23.748;2022-11-15T09:23:22;14.80;;;5.50;;
18302;SDS011;9277;37.980;23.748;2022-11-15T09:25:49;9.38;;;4.68;;
18302;SDS011;9277;37.980;23.748;2022-11-15T09:28:17;8.02;;;4.57;;
18302;SDS011;9277;37.980;23.748;2022-11-15T09:30:44;8.52;;;4.72;;
18302;SDS011;9277;37.980;23.748;2022-11-15T09:33:11;10.30;;;4.63;;
18302;SDS011;9277;37.980;23.748;2022-11-15T09:35:39;12.25;;;5.10;;
18302;SDS011;9277;37.980;23.748;2022-11-15T09:38:06;10.63;;;4.72;;
18302;SDS011;9277;37.980;23.748;2022-11-15T09:40:35;7.32;;;4.88;;
18302;SDS011;9277;37.980;23.748;2022-11-15T09:43:08;8.05;;;4.50;;
18302;SDS011;9277;37.980;23.748;2022-11-15T09:45:42;9.52;;;4.80;;
18302;SDS011;9277;37.980;23.748;2022-11-15T09:51:17;9.38;;;4.97;;
18302;SDS011;9277;37.980;23.748;2022-11-15T09:53:47;12.45;;;5.38;;
18302;SDS011;9277;37.980;23.748;2022-11-15T09:56:16;9.13;;;4.82;;
18302;SDS011;9277;37.980;23.748;2022-11-15T09:58:46;9.15;;;4.95;;
18302;SDS011;9277;37.980;23.748;2022-11-15T10:01:20;10.70;;;4.43;;
18302;SDS011;9277;37.980;23.748;2022-11-15T10:03:48;9.70;;;4.55;;
18302;SDS011;9277;37.980;23.748;2022-11-15T10:06:18;9.48;;;4.53;;
18302;SDS011;9277;37.980;23.748;2022-11-15T10:08:53;9.07;;;4.90;;
18302;SDS011;9277;37.980;23.748;2022-11-15T10:11:22;15.05;;;5.93;;
18302;SDS011;9277;37.980;23.748;2022-11-15T10:13:49;13.63;;;6.18;;
18302;SDS011;9277;37.980;23.748;2022-11-15T10:16:22;11.90;;;5.53;;
18302;SDS011;9277;37.980;23.748;2022-11-15T10:18:52;8.10;;;5.32;;
18302;SDS011;9277;37.980;23.748;2022-11-15T10:21:23;9.52;;;5.38;;
18302;SDS011;9277;37.980;23.748;2022-11-15T10:23:51;13.45;;;5.90;;
18302;SDS011;9277;37.980;23.748;2022-11-15T10:26:19;10.15;;;5.90;;
18302;SDS011;9277;37.980;23.748;2022-11-15T10:28:47;14.00;;;6.03;;
18302;SDS011;9277;37.980;23.748;2022-11-15T10:31:25;16.50;;;6.32;;
18302;SDS011;9277;37.980;23.748;2022-11-15T10:36:23;12.13;;;4.90;;
18302;SDS011;9277;37.980;23.748;2022-11-15T10:38:57;13.40;;;6.00;;
18302;SDS011;9277;37.980;23.748;2022-11-15T10:41:31;13.88;;;6.40;;
18302;SDS011;9277;37.980;23.748;2022-11-15T10:44:11;10.13;;;5.05;;
18302;SDS011;9277;37.980;23.748;2022-11-15T10:46:40;8.57;;;4.90;;
18302;SDS011;9277;37.980;23.748;2022-11-15T10:49:12;9.18;;;5.45;;
18302;SDS011;9277;37.980;23.748;2022-11-15T10:51:40;7.97;;;5.15;;
18302;SDS011;9277;37.980;23.748;2022-11-15T10:54:08;8.38;;;5.38;;
18302;SDS011;9277;37.980;23.748;2022-11-15T10:56:36;9.32;;;4.93;;
18302;SDS011;9277;37.980;23.748;2022-11-15T10:59:03;9.82;;;5.32;;
18302;SDS011;9277;37.980;23.748;2022-11-15T11:01:30;11.10;;;5.95;;
18302;SDS011;9277;37.980;23.748;2022-11-15T11:04:01;13.98;;;5.40;;
18302;SDS011;9277;37.980;23.748;2022-11-15T11:06:28;9.38;;;5.28;;
18302;SDS011;9277;37.980;23.748;2022-11-15T11:08:57;9.05;;;4.97;;
18302;SDS011;9277;37.980;23.748;2022-11-15T11:11:24;7.32;;;4.10;;
18302;SDS011;9277;37.980;23.748;2022-11-15T11:13:51;8.63;;;4.90;;
18302;SDS011;9277;37.980;23.748;2022-11-15T11:19:04;9.40;;;5.20;;
18302;SDS011;9277;37.980;23.748;2022-11-15T11:21:37;8.52;;;4.60;;
18302;SDS011;9277;37.980;23.748;2022-11-15T11:24:08;9.07;;;4.85;;
18302;SDS011;9277;37.980;23.748;2022-11-15T11:26:41;7.20;;;4.75;;
18302;SDS011;9277;37.980;23.748;2022-11-15T11:29:15;8.93;;;5.20;;
18302;SDS011;9277;37.980;23.748;2022-11-15T11:31:46;9.55;;;5.30;;
18302;SDS011;9277;37.980;23.748;2022-11-15T11:34:19;8.02;;;5.05;;
18302;SDS011;9277;37.980;23.748;2022-11-15T11:36:53;8.32;;;5.43;;
18302;SDS011;9277;37.980;23.748;2022-11-15T11:39:24;12.40;;;5.55;;
18302;SDS011;9277;37.980;23.748;2022-11-15T11:41:56;11.10;;;5.32;;
18302;SDS011;9277;37.980;23.748;2022-11-15T11:44:33;12.27;;;5.72;;
18302;SDS011;9277;37.980;23.748;2022-11-15T11:47:01;8.10;;;4.82;;
18302;SDS011;9277;37.980;23.748;2022-11-15T11:49:33;11.07;;;5.78;;
18302;SDS011;9277;37.980;23.748;2022-11-15T11:52:03;8.38;;;5.05;;
18302;SDS011;9277;37.980;23.748;2022-11-15T11:54:34;11.05;;;5.00;;
18302;SDS011;9277;37.980;23.748;2022-11-15T11:57:02;11.70;;;5.43;;
18302;SDS011;9277;37.980;23.748;2022-11-15T11:59:32;11.18;;;5.75;;
18302;SDS011;9277;37.980;23.748;2022-11-15T12:02:01;13.43;;;5.80;;
18302;SDS011;9277;37.980;23.748;2022-11-15T12:04:29;10.18;;;5.65;;
18302;SDS011;9277;37.980;23.748;2022-11-15T12:06:59;11.15;;;5.43;;
18302;SDS011;9277;37.980;23.748;2022-11-15T12:09:27;12.40;;;6.28;;
18302;SDS011;9277;37.980;23.748;2022-11-15T12:11:58;9.38;;;5.22;;
18302;SDS011;9277;37.980;23.748;2022-11-15T12:14:29;10.15;;;5.65;;
18302;SDS011;9277;37.980;23.748;2022-11-15T12:16:58;10.93;;;5.32;;
18302;SDS011;9277;37.980;23.748;2022-11-15T12:19:25;10.73;;;5.22;;
18302;SDS011;9277;37.980;23.748;2022-11-15T12:21:54;9.05;;;4.75;;
18302;SDS011;9277;37.980;23.748;2022-11-15T12:24:24;10.32;;;5.72;;
18302;SDS011;9277;37.980;23.748;2022-11-15T12:26:52;12.65;;;6.03;;
18302;SDS011;9277;37.980;23.748;2022-11-15T12:29:23;13.73;;;6.43;;
18302;SDS011;9277;37.980;23.748;2022-11-15T12:31:51;12.10;;;6.03;;
18302;SDS011;9277;37.980;23.748;2022-11-15T12:34:34;9.43;;;5.20;;
18302;SDS011;9277;37.980;23.748;2022-11-15T12:37:02;13.05;;;5.93;;
18302;SDS011;9277;37.980;23.748;2022-11-15T12:42:41;9.90;;;5.63;;
18302;SDS011;9277;37.980;23.748;2022-11-15T12:45:23;8.23;;;5.00;;
18302;SDS011;9277;37.980;23.748;2022-11-15T12:47:50;10.38;;;4.85;;
18302;SDS011;9277;37.980;23.748;2022-11-15T12:50:22;11.77;;;5.45;;
18302;SDS011;9277;37.980;23.748;2022-11-15T12:53:25;10.38;;;4.68;;
18302;SDS011;9277;37.980;23.748;2022-11-15T12:56:08;9.45;;;5.15;;
18302;SDS011;9277;37.980;23.748;2022-11-15T12:58:42;7.90;;;4.70;;
18302;SDS011;9277;37.980;23.748;2022-11-15T13:01:14;8.50;;;5.15;;
18302;SDS011;9277;37.980;23.748;2022-11-15T13:04:21;9.70;;;5.45;;
18302;SDS011;9277;37.980;23.748;2022-11-15T13:06:49;10.20;;;5.05;;
18302;SDS011;9277;37.980;23.748;2022-11-15T13:12:02;8.60;;;4.45;;
18302;SDS011;9277;37.980;23.748;2022-11-15T13:14:41;7.57;;;4.88;;
18302;SDS011;9277;37.980;23.748;2022-11-15T13:17:16;12.88;;;5.25;;
18302;SDS011;9277;37.980;23.748;2022-11-15T13:19:43;9.27;;;5.15;;
18302;SDS011;9277;37.980;23.748;2022-11-15T13:22:12;8.65;;;4.70;;
18302;SDS011;9277;37.980;23.748;2022-11-15T13:24:56;6.80;;;4.47;;
18302;SDS011;9277;37.980;23.748;2022-11-15T13:27:23;7.70;;;4.50;;
18302;SDS011;9277;37.980;23.748;2022-11-15T13:29:52;9.27;;;5.22;;
18302;SDS011;9277;37.980;23.748;2022-11-15T13:32:19;8.65;;;4.93;;
18302;SDS011;9277;37.980;23.748;2022-11-15T13:34:47;11.23;;;5.18;;
18302;SDS011;9277;37.980;23.748;2022-11-15T13:37:27;10.10;;;5.40;;
18302;SDS011;9277;37.980;23.748;2022-11-15T13:39:55;10.32;;;5.28;;
18302;SDS011;9277;37.980;23.748;2022-11-15T13:42:36;8.57;;;5.15;;
18302;SDS011;9277;37.980;23.748;2022-11-15T13:45:05;7.40;;;4.70;;
18302;SDS011;9277;37.980;23.748;2022-11-15T13:47:31;7.32;;;4.28;;
18302;SDS011;9277;37.980;23.748;2022-11-15T13:49:58;10.73;;;4.50;;
18302;SDS011;9277;37.980;23.748;2022-11-15T13:52:27;10.02;;;4.95;;
18302;SDS011;9277;37.980;23.748;2022-11-15T13:54:55;10.30;;;4.40;;
18302;SDS011;9277;37.980;23.748;2022-11-15T13:57:24;10.40;;;4.75;;
18302;SDS011;9277;37.980;23.748;2022-11-15T13:59:53;9.98;;;4.32;;
18302;SDS011;9277;37.980;23.748;2022-11-15T14:02:25;9.23;;;5.65;;
18302;SDS011;9277;37.980;23.748;2022-11-15T14:04:53;12.48;;;5.45;;
18302;SDS011;9277;37.980;23.748;2022-11-15T14:07:23;10.43;;;4.80;;
18302;SDS011;9277;37.980;23.748;2022-11-15T14:09:50;10.82;;;5.90;;
18302;SDS011;9277;37.980;23.748;2022-11-15T14:12:22;10.10;;;5.25;;
18302;SDS011;9277;37.980;23.748;2022-11-15T14:14:50;9.25;;;4.90;;
18302;SDS011;9277;37.980;23.748;2022-11-15T14:17:19;9.55;;;5.43;;
18302;SDS011;9277;37.980;23.748;2022-11-15T14:19:48;9.00;;;5.43;;
18302;SDS011;9277;37.980;23.748;2022-11-15T14:22:15;12.88;;;5.07;;
18302;SDS011;9277;37.980;23.748;2022-11-15T14:24:44;9.30;;;5.28;;
18302;SDS011;9277;37.980;23.748;2022-11-15T14:27:22;12.18;;;5.20;;
18302;SDS011;9277;37.980;23.748;2022-11-15T14:29:49;7.93;;;5.18;;
18302;SDS011;9277;37.980;23.748;2022-11-15T14:32:16;13.20;;;6.10;;
18302;SDS011;9277;37.980;23.748;2022-11-15T14:34:44;10.48;;;5.97;;
18302;SDS011;9277;37.980;23.748;2022-11-15T14:37:22;8.98;;;5.43;;
18302;SDS011;9277;37.980;23.748;2022-11-15T14:39:49;10.88;;;5.40;;
18302;SDS011;9277;37.980;23.748;2022-11-15T14:42:16;9.70;;;5.60;;
18302;SDS011;9277;37.980;23.748;2022-11-15T14:44:43;10.38;;;6.05;;
18302;SDS011;9277;37.980;23.748;2022-11-15T14:47:10;10.95;;;5.00;;
18302;SDS011;9277;37.980;23.748;2022-11-15T14:49:36;12.60;;;5.05;;
18302;SDS011;9277;37.980;23.748;2022-11-15T14:52:07;10.63;;;5.53;;
18302;SDS011;9277;37.980;23.748;2022-11-15T14:54:35;8.73;;;4.85;;
18302;SDS011;9277;37.980;23.748;2022-11-15T14:57:02;9.60;;;4.65;;
18302;SDS011;9277;37.980;23.748;2022-11-15T14:59:29;10.52;;;5.53;;
18302;SDS011;9277;37.980;23.748;2022-11-15T15:01:56;8.82;;;5.15;;
18302;SDS011;9277;37.980;23.748;2022-11-15T15:04:24;12.18;;;4.82;;
18302;SDS011;9277;37.980;23.748;2022-11-15T15:06:51;8.40;;;5.20;;
18302;SDS011;9277;37.980;23.748;2022-11-15T15:09:18;10.77;;;4.95;;